This is the latest recevied weather packets stored in our database for station/object N4RCT. If no packets are shown the sender has not sent any weather packets the latest 10 day(s).
| Time | Temp. | Humidity | Pressure | Rain* | Wind** | Luminosity | Snow |
|---|---|---|---|---|---|---|---|
| 1777754080 | 18.89° C | 39% | 1013 hPa | 0 mm | - | 235 W/m² | - |
| 1777753776 | 18.89° C | 41% | 1013 hPa | 0 mm | - | 256 W/m² | - |
| 1777753473 | 19.44° C | 40% | 1013.2 hPa | 0 mm | - | 78 W/m² | - |
| 1777753171 | 18.89° C | 40% | 1013 hPa | 0 mm | - | 69 W/m² | - |
| 1777752866 | 19.44° C | 39% | 1013.2 hPa | 0 mm | - | 75 W/m² | - |
| 1777752564 | 19.44° C | 39% | 1013.5 hPa | 0 mm | - | 60 W/m² | - |
| 1777752259 | 19.44° C | 40% | 1013.3 hPa | 0 mm | - | 78 W/m² | - |
| 1777751957 | 19.44° C | 37% | 1013 hPa | 0 mm | - | 205 W/m² | - |
| 1777751654 | 19.44° C | 40% | 1013.2 hPa | 0 mm | - | 308 W/m² | - |
| 1777751350 | 20° C | 37% | 1013.1 hPa | 0 mm | - | 453 W/m² | - |
| 1777751048 | 19.44° C | 39% | 1013.3 hPa | 0 mm | - | 613 W/m² | - |
| 1777750744 | 18.89° C | 39% | 1013.1 hPa | 0 mm | - | 496 W/m² | - |
| 1777750441 | 19.44° C | 38% | 1013.1 hPa | 0 mm | - | 481 W/m² | - |
| 1777750136 | 19.44° C | 40% | 1013.3 hPa | 0 mm | - | 569 W/m² | - |
| 1777749833 | 20° C | 36% | 1013.3 hPa | 0 mm | - | 633 W/m² | - |
| 1777749530 | 20° C | 38% | 1013.5 hPa | 0 mm | - | 680 W/m² | - |
| 1777749228 | 20° C | 34% | 1013.2 hPa | 0 mm | - | 731 W/m² | - |
| 1777748925 | 19.44° C | 34% | 1013.1 hPa | 0 mm | - | 741 W/m² | - |
| 1777748623 | 19.44° C | 37% | 1013.1 hPa | 0 mm | - | 741 W/m² | - |
| 1777748318 | 18.89° C | 37% | 1013.1 hPa | 0 mm | - | 799 W/m² | - |
| 1777748014 | 19.44° C | 37% | 1013.3 hPa | 0 mm | - | 584 W/m² | - |
| 1777747711 | 19.44° C | 38% | 1013.3 hPa | 0 mm | - | 792 W/m² | - |
| 1777747406 | 19.44° C | 35% | 1013.1 hPa | 0 mm | - | 752 W/m² | - |
| 1777747103 | 19.44° C | 39% | 1013.5 hPa | 0 mm | - | 756 W/m² | - |
| 1777746800 | 19.44° C | 37% | 1013.3 hPa | 0 mm | - | 756 W/m² | - |
* Rain latest hour (hover to see other rain measurements)
** Current wind speed in m/s (hover to see current wind gust speed)